createdAt,value
2022-12-19T00:00:52.182Z,17.07
2022-12-19T00:03:18.571Z,16.94
2022-12-19T00:05:44.935Z,16.82
2022-12-19T00:08:17.166Z,16.72
2022-12-19T00:10:44.001Z,16.60
2022-12-19T00:13:10.186Z,16.50
2022-12-19T00:15:36.438Z,16.38
2022-12-19T00:18:02.642Z,16.27
2022-12-19T00:20:29.126Z,16.18
2022-12-19T00:22:55.338Z,16.06
2022-12-19T00:25:21.522Z,15.96
2022-12-19T00:27:48.220Z,15.87
2022-12-19T00:30:14.480Z,15.76
2022-12-19T00:32:41.384Z,15.67
2022-12-19T00:35:07.561Z,15.57
2022-12-19T00:37:33.796Z,15.49
2022-12-19T00:40:00.043Z,15.40
2022-12-19T00:42:26.262Z,15.31
2022-12-19T00:44:52.625Z,15.22
2022-12-19T00:47:18.826Z,15.13
2022-12-19T00:49:45.165Z,15.04
2022-12-19T00:52:12.615Z,14.96
2022-12-19T00:54:38.893Z,14.88
2022-12-19T00:57:05.191Z,14.81
2022-12-19T00:59:31.414Z,14.72
2022-12-19T01:01:57.862Z,14.63
2022-12-19T01:04:28.851Z,14.58
2022-12-19T01:06:57.971Z,14.50
2022-12-19T01:09:29.080Z,14.42
2022-12-19T01:11:55.302Z,14.36
2022-12-19T01:14:23.307Z,14.29
2022-12-19T01:16:49.801Z,14.23
2022-12-19T01:19:16.059Z,14.17
2022-12-19T01:21:42.284Z,14.11
2022-12-19T01:24:09.220Z,14.04
2022-12-19T01:26:35.485Z,13.98
2022-12-19T01:29:01.679Z,13.92
2022-12-19T01:31:28.021Z,13.86
2022-12-19T01:33:54.567Z,13.79
2022-12-19T01:36:20.844Z,13.74
2022-12-19T01:38:47.143Z,13.69
2022-12-19T01:41:13.397Z,13.62
2022-12-19T01:43:39.614Z,13.57
2022-12-19T01:46:07.147Z,13.52
2022-12-19T01:48:33.381Z,13.47
2022-12-19T01:51:00.850Z,13.43
2022-12-19T01:53:28.554Z,13.38
2022-12-19T01:55:55.014Z,13.33
2022-12-19T01:58:21.210Z,13.29
2022-12-19T02:00:47.428Z,13.25
2022-12-19T02:03:13.732Z,13.21
2022-12-19T02:05:39.964Z,13.18
2022-12-19T02:08:06.174Z,13.13
2022-12-19T02:10:32.456Z,13.10
2022-12-19T02:12:58.649Z,13.05
2022-12-19T02:15:24.872Z,13.01
2022-12-19T02:17:52.565Z,12.95
2022-12-19T02:20:19.107Z,12.91
2022-12-19T02:22:45.419Z,12.87
2022-12-19T02:25:11.612Z,12.82
2022-12-19T02:27:40.224Z,12.77
2022-12-19T02:30:06.943Z,12.72
2022-12-19T02:32:33.214Z,12.68
2022-12-19T02:35:02.482Z,12.63
2022-12-19T02:37:28.747Z,12.58
2022-12-19T02:39:55.436Z,12.54
2022-12-19T02:42:21.687Z,12.48
2022-12-19T02:44:48.756Z,12.41
2022-12-19T02:47:14.952Z,12.38
2022-12-19T02:49:41.138Z,12.34
2022-12-19T02:52:07.475Z,12.30
2022-12-19T02:54:33.678Z,12.26
2022-12-19T02:56:59.994Z,12.23
2022-12-19T02:59:26.279Z,12.19
2022-12-19T03:01:52.590Z,12.16
2022-12-19T03:04:18.972Z,12.12
2022-12-19T03:06:45.172Z,12.10
2022-12-19T03:09:13.412Z,12.06
2022-12-19T03:11:39.601Z,12.05
2022-12-19T03:14:08.663Z,12.02
2022-12-19T03:19:21.925Z,11.96
2022-12-19T03:22:15.328Z,11.90
2022-12-19T03:24:41.640Z,11.86
2022-12-19T03:27:07.862Z,11.85
2022-12-19T03:29:34.187Z,11.82
2022-12-19T03:32:00.447Z,11.80
2022-12-19T03:34:26.674Z,11.77
2022-12-19T03:36:53.054Z,11.75
2022-12-19T03:39:19.269Z,11.73
2022-12-19T03:41:45.465Z,11.72
2022-12-19T03:44:11.660Z,11.71
2022-12-19T03:46:38.103Z,11.69
2022-12-19T03:49:04.387Z,11.69
2022-12-19T03:51:30.664Z,11.66
2022-12-19T03:53:56.852Z,11.64
2022-12-19T03:56:23.385Z,11.61
2022-12-19T03:58:49.729Z,11.58
2022-12-19T04:01:15.982Z,11.56
2022-12-19T04:03:42.642Z,11.53
2022-12-19T04:06:08.987Z,11.50
2022-12-19T04:08:35.243Z,11.48
2022-12-19T04:11:01.531Z,11.47
2022-12-19T04:13:27.799Z,11.46
2022-12-19T04:15:54.109Z,11.44
2022-12-19T04:18:23.352Z,11.43
2022-12-19T04:20:49.572Z,11.42
2022-12-19T04:23:15.803Z,11.41
2022-12-19T04:25:42.029Z,11.40
2022-12-19T04:28:08.276Z,11.37
2022-12-19T04:30:36.963Z,11.33
2022-12-19T04:33:03.304Z,11.30
2022-12-19T04:35:29.527Z,11.28
2022-12-19T04:37:55.743Z,11.26
2022-12-19T04:40:21.947Z,11.24
2022-12-19T04:42:48.166Z,11.22
2022-12-19T04:45:17.486Z,11.19
2022-12-19T04:47:43.795Z,11.17
2022-12-19T04:50:10.072Z,11.17
2022-12-19T04:52:36.350Z,11.14
2022-12-19T04:55:02.631Z,11.13
2022-12-19T04:57:28.979Z,11.12
2022-12-19T04:59:55.180Z,11.10
2022-12-19T05:02:21.613Z,11.09
2022-12-19T05:04:48.084Z,11.08
2022-12-19T05:07:14.417Z,11.09
2022-12-19T05:09:40.661Z,11.08
2022-12-19T05:12:06.833Z,11.06
2022-12-19T05:14:33.032Z,11.04
2022-12-19T05:17:01.647Z,11.01
2022-12-19T05:19:27.975Z,10.99
2022-12-19T05:21:54.227Z,10.96
2022-12-19T05:24:20.510Z,10.96
2022-12-19T05:26:46.804Z,10.95
2022-12-19T05:29:13.167Z,10.94
2022-12-19T05:31:39.411Z,10.93
2022-12-19T05:34:05.832Z,10.92
2022-12-19T05:36:32.738Z,10.89
2022-12-19T05:38:59.185Z,10.88
2022-12-19T05:41:25.428Z,10.88
2022-12-19T05:43:51.632Z,10.87
2022-12-19T05:46:18.248Z,10.87
2022-12-19T05:48:44.497Z,10.88
2022-12-19T05:51:11.093Z,10.87
2022-12-19T05:53:37.288Z,10.87
2022-12-19T05:56:03.784Z,10.86
2022-12-19T05:58:30.027Z,10.86
2022-12-19T06:01:00.667Z,10.85
2022-12-19T06:03:27.112Z,10.84
2022-12-19T06:05:55.573Z,10.84
2022-12-19T06:08:21.786Z,10.82
2022-12-19T06:10:47.961Z,10.79
2022-12-19T06:13:14.215Z,10.76
2022-12-19T06:15:40.494Z,10.73
2022-12-19T06:18:06.856Z,10.71
2022-12-19T06:20:33.065Z,10.68
2022-12-19T06:22:59.454Z,10.67
2022-12-19T06:25:25.730Z,10.66
2022-12-19T06:27:51.969Z,10.64
2022-12-19T06:30:18.267Z,10.63
2022-12-19T06:32:44.601Z,10.62
2022-12-19T06:35:10.822Z,10.59
2022-12-19T06:37:39.463Z,10.56
2022-12-19T06:40:06.061Z,10.57
2022-12-19T06:42:32.254Z,10.85
2022-12-19T06:44:58.465Z,11.35
2022-12-19T06:47:25.257Z,11.84
2022-12-19T06:49:51.646Z,12.28
2022-12-19T06:52:18.008Z,12.64
2022-12-19T06:54:44.594Z,12.91
2022-12-19T06:57:11.012Z,13.13
2022-12-19T06:59:37.418Z,13.33
2022-12-19T07:02:03.850Z,13.49
2022-12-19T07:04:30.341Z,13.70
2022-12-19T07:06:56.590Z,13.82
2022-12-19T07:09:22.937Z,13.95
2022-12-19T07:11:49.134Z,14.20
2022-12-19T07:14:15.421Z,14.40
2022-12-19T07:16:42.099Z,14.59
2022-12-19T07:19:09.189Z,14.83
2022-12-19T07:21:35.438Z,15.03
2022-12-19T07:24:01.713Z,15.17
2022-12-19T07:26:27.904Z,15.36
2022-12-19T07:28:54.210Z,15.55
2022-12-19T07:31:20.532Z,15.78
2022-12-19T07:33:46.817Z,16.03
2022-12-19T07:36:13.450Z,16.21
2022-12-19T07:38:39.766Z,16.39
2022-12-19T07:41:05.960Z,16.53
2022-12-19T07:43:32.212Z,16.67
2022-12-19T07:45:58.577Z,16.77
2022-12-19T07:48:24.976Z,16.86
2022-12-19T07:50:52.230Z,16.96
2022-12-19T07:53:18.436Z,17.02
2022-12-19T07:55:44.751Z,17.10
2022-12-19T07:58:10.991Z,17.21
2022-12-19T08:00:37.216Z,17.31
2022-12-19T08:03:03.511Z,17.38
2022-12-19T08:05:29.843Z,17.44
2022-12-19T08:07:56.078Z,17.50
2022-12-19T08:10:22.363Z,17.55
2022-12-19T08:12:48.582Z,17.61
2022-12-19T08:15:14.806Z,17.67
2022-12-19T08:17:41.009Z,17.71
2022-12-19T08:20:07.372Z,17.72
2022-12-19T08:22:33.604Z,17.72
2022-12-19T08:25:02.910Z,17.70
2022-12-19T08:27:29.353Z,17.66
2022-12-19T08:29:55.606Z,17.65
2022-12-19T08:32:24.706Z,17.65
2022-12-19T08:34:50.997Z,17.64
2022-12-19T08:37:17.335Z,17.56
2022-12-19T08:39:43.817Z,17.51
2022-12-19T08:42:10.096Z,17.47
2022-12-19T08:44:36.391Z,17.40
2022-12-19T08:47:02.638Z,17.37
2022-12-19T08:49:29.002Z,17.35
2022-12-19T08:51:55.296Z,17.32
2022-12-19T08:54:21.527Z,17.27
2022-12-19T08:56:47.859Z,17.20
2022-12-19T08:59:18.091Z,17.13
2022-12-19T09:01:49.246Z,17.07
2022-12-19T09:05:59.488Z,17.02
2022-12-19T09:07:01.831Z,16.97
2022-12-19T09:09:28.076Z,16.93
2022-12-19T09:11:54.437Z,16.89
2022-12-19T09:14:21.401Z,16.86
2022-12-19T09:16:48.081Z,16.83
2022-12-19T09:19:14.432Z,16.80
2022-12-19T09:21:40.919Z,16.82
2022-12-19T09:24:08.185Z,16.80
2022-12-19T09:26:34.590Z,16.82
2022-12-19T09:29:00.862Z,16.86
2022-12-19T09:31:28.664Z,16.96
2022-12-19T09:33:55.100Z,17.07
2022-12-19T09:36:21.493Z,17.19
2022-12-19T09:38:47.885Z,17.31
2022-12-19T09:41:14.985Z,17.44
2022-12-19T09:43:44.331Z,17.41
2022-12-19T09:46:10.617Z,17.64
2022-12-19T09:48:36.914Z,17.75
2022-12-19T09:51:10.038Z,17.86
2022-12-19T09:53:39.026Z,17.95
2022-12-19T09:56:05.519Z,18.04
2022-12-19T09:58:31.783Z,18.13
2022-12-19T10:00:59.944Z,18.19
2022-12-19T10:03:26.740Z,18.26
2022-12-19T10:07:11.033Z,18.29
2022-12-19T10:08:56.968Z,18.33
2022-12-19T10:12:40.315Z,18.35
2022-12-19T10:14:11.846Z,18.35
2022-12-19T10:16:39.062Z,18.34
2022-12-19T10:19:05.318Z,18.33
2022-12-19T10:22:07.650Z,18.29
2022-12-19T10:24:17.965Z,18.24
2022-12-19T10:26:44.232Z,18.20
2022-12-19T10:29:10.508Z,18.16
2022-12-19T10:31:37.947Z,18.13
2022-12-19T10:34:04.386Z,18.09
2022-12-19T10:37:04.616Z,18.06
2022-12-19T10:39:17.020Z,18.01
2022-12-19T10:41:44.153Z,17.96
2022-12-19T10:44:10.647Z,17.91
2022-12-19T10:46:37.123Z,17.86
2022-12-19T10:49:03.419Z,17.82
2022-12-19T10:51:29.704Z,17.78
2022-12-19T10:53:55.947Z,17.76
2022-12-19T10:56:22.198Z,17.73
2022-12-19T10:58:49.231Z,17.70
2022-12-19T11:01:15.627Z,17.69
2022-12-19T11:03:42.116Z,17.68
2022-12-19T11:06:08.446Z,17.65
2022-12-19T11:08:34.764Z,17.64
2022-12-19T11:13:17.272Z,17.62
2022-12-19T11:19:29.316Z,17.61
2022-12-19T11:20:49.495Z,17.60
2022-12-19T11:29:16.120Z,17.60
2022-12-19T11:29:26.986Z,17.57
2022-12-19T11:30:37.769Z,17.58
2022-12-19T11:30:44.320Z,17.61
2022-12-19T11:33:14.041Z,17.78
2022-12-19T11:35:40.361Z,17.87
2022-12-19T11:38:07.380Z,17.99
2022-12-19T11:40:34.055Z,18.14
2022-12-19T11:43:41.913Z,18.28
2022-12-19T11:45:46.540Z,18.45
2022-12-19T11:48:12.875Z,18.58
2022-12-19T11:50:39.730Z,18.69
2022-12-19T11:53:11.535Z,18.77
2022-12-19T11:55:43.065Z,18.81
2022-12-19T11:58:09.340Z,18.80
2022-12-19T12:00:35.638Z,18.81
2022-12-19T12:03:01.967Z,18.80
2022-12-19T12:05:28.301Z,18.77
2022-12-19T12:08:25.517Z,18.74
2022-12-19T12:17:03.718Z,18.72
2022-12-19T12:26:25.904Z,18.67
2022-12-19T12:28:07.069Z,18.64
2022-12-19T12:31:20.456Z,18.53
2022-12-19T12:31:23.775Z,18.57
2022-12-19T12:31:31.783Z,18.60
2022-12-19T12:31:48.511Z,18.41
2022-12-19T12:31:53.470Z,18.48
2022-12-19T12:35:30.230Z,18.37
2022-12-19T12:38:30.771Z,18.27
2022-12-19T12:40:57.646Z,18.24
2022-12-19T12:43:26.852Z,18.22
2022-12-19T12:45:53.315Z,18.20
2022-12-19T12:48:19.592Z,18.17
2022-12-19T12:50:48.635Z,18.13
2022-12-19T12:53:19.497Z,18.10
2022-12-19T12:55:45.841Z,18.08
2022-12-19T12:58:15.324Z,18.05
2022-12-19T13:00:46.102Z,18.03
2022-12-19T13:03:12.524Z,18.01
2022-12-19T13:05:39.054Z,17.99
2022-12-19T13:08:05.481Z,17.98
2022-12-19T13:10:31.787Z,17.96
2022-12-19T13:12:58.140Z,17.96
2022-12-19T13:15:24.403Z,17.96
2022-12-19T13:17:50.654Z,17.93
2022-12-19T13:20:16.927Z,17.92
2022-12-19T13:22:43.249Z,17.90
2022-12-19T13:25:09.603Z,17.89
2022-12-19T13:27:35.884Z,17.88
2022-12-19T13:30:02.192Z,17.86
2022-12-19T13:32:28.456Z,17.85
2022-12-19T13:35:20.182Z,17.84
2022-12-19T13:39:49.404Z,17.82
2022-12-19T13:40:32.331Z,17.80
2022-12-19T13:43:10.353Z,17.78
2022-12-19T13:45:37.505Z,17.76
2022-12-19T13:48:05.680Z,17.74
2022-12-19T13:50:33.641Z,17.73
2022-12-19T13:53:00.017Z,17.70
2022-12-19T13:55:26.317Z,17.69
2022-12-19T13:57:52.569Z,17.72
2022-12-19T14:00:18.824Z,17.79
2022-12-19T14:02:46.118Z,17.88
2022-12-19T14:05:12.808Z,17.99
2022-12-19T14:07:39.087Z,18.15
2022-12-19T14:11:32.247Z,18.28
2022-12-19T14:13:57.588Z,18.41
2022-12-19T14:15:37.973Z,18.49
2022-12-19T14:18:08.270Z,18.56
2022-12-19T14:22:04.370Z,18.60
2022-12-19T14:23:43.764Z,18.63
2022-12-19T14:28:17.162Z,18.64
2022-12-19T14:28:57.104Z,18.62
2022-12-19T14:31:23.446Z,18.62
2022-12-19T14:36:36.125Z,18.57
2022-12-19T14:39:24.522Z,18.53
2022-12-19T14:41:54.660Z,18.53
2022-12-19T14:51:43.042Z,18.52
2022-12-19T14:52:51.160Z,18.54
2022-12-19T14:54:09.564Z,18.46
2022-12-19T14:54:23.527Z,18.40
2022-12-19T14:56:11.541Z,18.35
2022-12-19T14:58:52.427Z,18.31
2022-12-19T15:01:14.419Z,18.27
2022-12-19T15:03:44.425Z,18.23
2022-12-19T15:07:09.861Z,18.20
2022-12-19T15:10:59.576Z,18.16
2022-12-19T15:14:37.439Z,18.10
2022-12-19T15:14:59.257Z,18.07
2022-12-19T15:17:26.276Z,18.02
2022-12-19T15:19:52.548Z,17.99
2022-12-19T15:22:18.836Z,17.95
2022-12-19T15:24:45.308Z,17.90
2022-12-19T15:27:11.571Z,17.86
2022-12-19T15:29:37.855Z,17.83
2022-12-19T15:32:04.108Z,17.81
2022-12-19T15:34:35.776Z,17.77
2022-12-19T15:37:04.536Z,17.73
2022-12-19T15:39:30.859Z,17.70
2022-12-19T15:41:57.127Z,17.67
2022-12-19T15:44:23.450Z,17.65
2022-12-19T15:46:49.960Z,17.65
2022-12-19T15:49:16.298Z,17.60
2022-12-19T15:51:42.638Z,17.68
2022-12-19T15:54:46.503Z,17.71
2022-12-19T15:56:55.203Z,17.72
2022-12-19T15:59:21.511Z,17.73
2022-12-19T16:01:47.856Z,17.73
2022-12-19T16:04:14.444Z,17.74
2022-12-19T16:06:40.966Z,17.75
2022-12-19T16:09:07.219Z,17.75
2022-12-19T16:11:33.487Z,17.75
2022-12-19T16:13:59.833Z,17.75
2022-12-19T16:16:26.167Z,17.76
2022-12-19T16:18:52.514Z,17.75
2022-12-19T16:21:18.762Z,17.76
2022-12-19T16:23:45.084Z,17.77
2022-12-19T16:26:11.392Z,17.84
2022-12-19T16:28:37.695Z,17.95
2022-12-19T16:31:04.039Z,18.13
2022-12-19T16:33:30.309Z,18.28
2022-12-19T16:36:05.630Z,18.41
2022-12-19T16:38:32.288Z,18.53
2022-12-19T16:40:58.627Z,18.63
2022-12-19T16:43:24.949Z,18.69
2022-12-19T16:45:51.230Z,18.74
2022-12-19T16:48:17.472Z,18.77
2022-12-19T16:50:43.868Z,18.77
2022-12-19T16:53:10.219Z,18.78
2022-12-19T16:55:36.514Z,18.77
2022-12-19T16:58:02.816Z,18.75
2022-12-19T17:00:29.162Z,18.74
2022-12-19T17:02:55.569Z,18.70
2022-12-19T17:05:21.945Z,18.66
2022-12-19T17:07:48.217Z,18.61
2022-12-19T17:10:14.505Z,18.56
2022-12-19T17:12:40.823Z,18.49
2022-12-19T17:15:07.067Z,18.47
2022-12-19T17:17:33.343Z,18.48
2022-12-19T17:19:59.661Z,18.47
2022-12-19T17:22:25.951Z,18.45
2022-12-19T17:24:52.207Z,18.41
2022-12-19T17:27:18.557Z,18.36
2022-12-19T17:29:44.865Z,18.31
2022-12-19T17:32:11.190Z,18.28
2022-12-19T17:34:37.547Z,18.25
2022-12-19T17:37:03.825Z,18.22
2022-12-19T17:39:30.125Z,18.20
2022-12-19T17:41:56.430Z,18.16
2022-12-19T17:44:22.661Z,18.13
2022-12-19T17:46:48.926Z,18.09
2022-12-19T17:49:15.244Z,18.07
2022-12-19T17:51:41.586Z,18.04
2022-12-19T17:54:07.897Z,18.00
2022-12-19T17:56:34.125Z,17.96
2022-12-19T17:59:00.504Z,17.93
2022-12-19T18:01:28.158Z,17.91
2022-12-19T18:03:54.526Z,17.88
2022-12-19T18:06:21.015Z,17.87
2022-12-19T18:08:47.354Z,17.86
2022-12-19T18:11:13.793Z,17.86
2022-12-19T18:13:40.063Z,17.92
2022-12-19T18:16:06.364Z,18.04
2022-12-19T18:18:33.729Z,18.16
2022-12-19T18:21:00.075Z,18.28
2022-12-19T18:23:26.386Z,18.43
2022-12-19T18:25:56.212Z,18.58
2022-12-19T18:28:27.354Z,18.72
2022-12-19T18:30:53.675Z,18.85
2022-12-19T18:33:19.960Z,18.99
2022-12-19T18:35:46.249Z,19.12
2022-12-19T18:38:12.490Z,19.24
2022-12-19T18:40:38.765Z,19.31
2022-12-19T18:43:05.052Z,19.37
2022-12-19T18:45:31.309Z,19.46
2022-12-19T18:47:57.564Z,19.55
2022-12-19T18:50:23.904Z,19.64
2022-12-19T18:52:50.151Z,19.72
2022-12-19T18:55:16.485Z,19.79
2022-12-19T18:57:42.781Z,19.89
2022-12-19T19:00:09.161Z,19.98
2022-12-19T19:02:35.606Z,20.04
2022-12-19T19:05:02.162Z,20.09
2022-12-19T19:07:28.428Z,20.15
2022-12-19T19:09:54.742Z,20.21
2022-12-19T19:12:21.010Z,20.22
2022-12-19T19:14:47.346Z,20.23
2022-12-19T19:17:13.790Z,20.22
2022-12-19T19:19:40.091Z,20.19
2022-12-19T19:22:06.407Z,20.15
2022-12-19T19:24:32.676Z,20.12
2022-12-19T19:26:58.970Z,20.07
2022-12-19T19:29:25.291Z,20.02
2022-12-19T19:31:51.810Z,19.97
2022-12-19T19:34:18.187Z,19.94
2022-12-19T19:36:45.732Z,19.88
2022-12-19T19:39:11.997Z,19.84
2022-12-19T19:41:38.386Z,19.78
2022-12-19T19:44:04.680Z,19.72
2022-12-19T19:46:31.010Z,19.66
2022-12-19T19:48:58.134Z,19.61
2022-12-19T19:51:25.241Z,19.56
2022-12-19T19:53:52.008Z,19.50
2022-12-19T19:56:25.843Z,19.43
2022-12-19T19:58:52.704Z,19.38
2022-12-19T20:01:19.429Z,19.33
2022-12-19T20:03:51.007Z,19.29
2022-12-19T20:06:17.377Z,19.25
2022-12-19T20:08:46.094Z,19.22
2022-12-19T20:11:12.620Z,19.18
2022-12-19T20:13:39.031Z,19.15
2022-12-19T20:16:05.337Z,19.12
2022-12-19T20:18:31.652Z,19.10
2022-12-19T20:20:57.956Z,19.11
2022-12-19T20:23:24.221Z,19.09
2022-12-19T20:25:50.559Z,19.18
2022-12-19T20:28:16.894Z,19.25
2022-12-19T20:30:43.281Z,19.34
2022-12-19T20:33:09.615Z,19.45
2022-12-19T20:35:35.878Z,19.59
2022-12-19T20:38:02.488Z,19.71
2022-12-19T20:40:28.864Z,19.85
2022-12-19T20:42:55.259Z,19.93
2022-12-19T20:45:24.375Z,20.03
2022-12-19T20:47:57.392Z,20.14
2022-12-19T20:50:23.772Z,20.10
2022-12-19T20:52:50.021Z,20.26
2022-12-19T20:55:16.331Z,20.28
2022-12-19T20:57:44.378Z,20.30
2022-12-19T21:00:10.947Z,20.28
2022-12-19T21:03:16.796Z,20.28
2022-12-19T21:05:23.743Z,20.25
2022-12-19T21:07:50.113Z,20.22
2022-12-19T21:10:16.458Z,20.20
2022-12-19T21:12:47.798Z,20.16
2022-12-19T21:15:14.495Z,20.12
2022-12-19T21:17:40.808Z,20.07
2022-12-19T21:20:07.352Z,20.03
2022-12-19T21:22:33.674Z,19.97
2022-12-19T21:25:00.055Z,19.93
2022-12-19T21:27:26.400Z,19.91
2022-12-19T21:29:52.740Z,19.89
2022-12-19T21:32:19.357Z,19.85
2022-12-19T21:34:45.710Z,19.77
2022-12-19T21:37:11.991Z,19.72
2022-12-19T21:39:38.433Z,19.68
2022-12-19T21:42:04.829Z,19.63
2022-12-19T21:44:31.113Z,19.58
2022-12-19T21:46:57.534Z,19.55
2022-12-19T21:49:24.228Z,19.51
2022-12-19T21:51:50.583Z,19.47
2022-12-19T21:54:16.882Z,19.44
2022-12-19T21:56:43.184Z,19.39
2022-12-19T21:59:09.538Z,19.36
2022-12-19T22:01:36.114Z,19.32
2022-12-19T22:04:02.646Z,19.29
2022-12-19T22:06:32.454Z,19.28
2022-12-19T22:09:10.100Z,19.24
2022-12-19T22:11:55.479Z,19.20
2022-12-19T22:14:27.314Z,19.17
2022-12-19T22:16:53.656Z,19.15
2022-12-19T22:19:19.952Z,19.12
2022-12-19T22:21:46.228Z,19.08
2022-12-19T22:24:12.499Z,19.07
2022-12-19T22:26:38.825Z,19.04
2022-12-19T22:29:05.142Z,19.01
2022-12-19T22:31:31.483Z,18.99
2022-12-19T22:33:57.811Z,18.97
2022-12-19T22:36:28.408Z,18.94
2022-12-19T22:38:55.065Z,18.92
2022-12-19T22:41:25.085Z,18.89
2022-12-19T22:43:56.855Z,18.86
2022-12-19T22:46:23.553Z,18.84
2022-12-19T22:48:49.886Z,18.81
2022-12-19T22:51:16.132Z,18.78
2022-12-19T22:53:42.415Z,18.78
2022-12-19T22:56:08.663Z,18.75
2022-12-19T22:58:34.965Z,18.73
2022-12-19T23:01:01.237Z,18.70
2022-12-19T23:03:27.523Z,18.69
2022-12-19T23:05:54.230Z,18.66
2022-12-19T23:08:20.515Z,18.62
2022-12-19T23:10:46.759Z,18.61
2022-12-19T23:13:13.165Z,18.58
2022-12-19T23:15:39.432Z,18.57
2022-12-19T23:18:05.778Z,18.46
2022-12-19T23:20:32.117Z,18.34
2022-12-19T23:22:58.447Z,18.21
2022-12-19T23:25:24.765Z,18.11
2022-12-19T23:27:51.081Z,18.00
2022-12-19T23:30:17.478Z,17.91
2022-12-19T23:32:48.852Z,17.82
2022-12-19T23:35:18.146Z,17.71
2022-12-19T23:37:44.453Z,17.61
2022-12-19T23:40:10.732Z,17.52
2022-12-19T23:42:36.984Z,17.44
2022-12-19T23:45:03.387Z,17.36
2022-12-19T23:47:29.738Z,17.29
2022-12-19T23:49:56.323Z,17.20
2022-12-19T23:52:22.669Z,17.13
2022-12-19T23:57:36.615Z,16.97
